Flagstaff Pulliam Airport
KFLG : rendu visible

Aérodrome :











RETROUVEZ-NOUS SUR...

 
LOGIN :

S'inscrire | Disclaimer

   EN    FR    IT 

 









Légende :    VFR   VFR Marginal   IFR   IFR Intensif   IFR Très Intensif
Visi : 
Plafond : 
>= 8 km
>= 3000ft
5 à 8 km
1000 à 3000 ft
1500m à 5 km
500 à 1000 ft
800 à 1500m
200 à 500 ft
< 800m
< 200 ft
Symboles :   Orages  Brouillard  Fortes neiges  Fortes précipitations  Vent > 20 kt






- Altitude de l'aérodrome : 7014 ft
- Code IATA : FLG


KFLG - Flagstaff Pulliam

DERNIER METAR :
  • 271957Z 08012G16KT 10SM CLR 04/M16 A3005 RMK AO2 SLP169 T00391156

METARs EXPIRÉS :
  • 271857Z 05012KT 10SM CLR 03/M16 A3007 RMK AO2 SLP180 T00281161
  • 271757Z 05013G19KT 10SM CLR 01/M17 A3008 RMK AO2 PK WND 04029/1705 SLP191 T00111172 10011 21067 53021
  • 271657Z 05018G30KT 10SM CLR M01/M18 A3005 RMK AO2 PK WND 06034/1617 SLP188 T10111178

TAF KFLG
Valide du 27 à 19h jusqu'au 28 à 18h UTC


271928Z 2719/2818 05012G20KT P6SM SKC
FM280100 04008KT P6SM SKC
FIR KZAB / Amérique du Nord



MET'MAP, la Météo Aéronautique d'un coup d'oeil ! - Copyright ORBIFLY Décembre 2007 - Disclaimer

ORBIFLY MET'MAP TEAM :

Programmation & Développement : Alexandra Zaïnal
Sur une idée originale de : Baudouin d'Aumeries
Assistance à la programmation : Marc-Olivier Méhu
Soutien technique & logistique : Manuel Goepfert

Contact : metmap@orbifly.com




SOURCES & CREDITS :

   NOAA       Earth
Advisory